createdAt,value
2022-11-27T00:00:59.894Z,14.30
2022-11-27T00:03:28.040Z,14.72
2022-11-27T00:05:58.549Z,14.31
2022-11-27T00:08:25.662Z,14.39
2022-11-27T00:10:53.287Z,14.32
2022-11-27T00:13:20.632Z,14.63
2022-11-27T00:15:47.833Z,14.58
2022-11-27T00:18:15.240Z,14.69
2022-11-27T00:20:42.342Z,14.28
2022-11-27T00:23:09.452Z,14.47
2022-11-27T00:25:36.807Z,14.65
2022-11-27T00:28:03.935Z,14.71
2022-11-27T00:30:31.048Z,14.84
2022-11-27T00:32:58.424Z,15.19
2022-11-27T00:35:25.548Z,14.38
2022-11-27T00:37:52.665Z,14.65
2022-11-27T00:40:20.148Z,14.67
2022-11-27T00:42:47.258Z,14.84
2022-11-27T00:45:14.344Z,14.29
2022-11-27T00:47:41.742Z,14.56
2022-11-27T00:50:08.985Z,14.86
2022-11-27T00:52:36.088Z,14.55
2022-11-27T00:55:03.734Z,14.51
2022-11-27T00:57:30.839Z,14.62
2022-11-27T00:59:57.950Z,15.03
2022-11-27T01:02:25.332Z,14.78
2022-11-27T01:04:52.518Z,14.75
2022-11-27T01:07:19.685Z,14.12
2022-11-27T01:09:47.073Z,14.79
2022-11-27T01:12:14.180Z,14.96
2022-11-27T01:14:41.506Z,15.09
2022-11-27T01:17:09.073Z,15.09
2022-11-27T01:19:37.197Z,15.07
2022-11-27T01:22:04.292Z,15.05
2022-11-27T01:24:31.684Z,14.83
2022-11-27T01:26:58.775Z,14.87
2022-11-27T01:29:25.896Z,14.81
2022-11-27T01:31:53.283Z,14.51
2022-11-27T01:34:20.403Z,14.80
2022-11-27T01:36:47.501Z,14.80
2022-11-27T01:39:16.119Z,14.34
2022-11-27T01:41:43.344Z,14.64
2022-11-27T01:44:25.639Z,14.71
2022-11-27T01:46:54.001Z,14.85
2022-11-27T01:49:25.215Z,14.33
2022-11-27T01:51:52.579Z,14.22
2022-11-27T01:54:20.346Z,14.53
2022-11-27T01:56:48.960Z,14.45
2022-11-27T01:59:16.696Z,14.05
2022-11-27T02:01:43.857Z,13.94
2022-11-27T02:04:11.260Z,14.08
2022-11-27T02:06:38.621Z,14.08
2022-11-27T02:09:05.730Z,14.07
2022-11-27T02:11:37.677Z,14.27
2022-11-27T02:14:10.915Z,14.30
2022-11-27T02:16:50.168Z,14.38
2022-11-27T02:19:37.743Z,14.34
2022-11-27T02:22:23.672Z,14.56
2022-11-27T02:25:10.008Z,14.70
2022-11-27T02:27:56.821Z,14.51
2022-11-27T02:30:24.192Z,14.36
2022-11-27T02:32:57.642Z,14.35
2022-11-27T02:35:36.661Z,14.38
2022-11-27T02:38:07.766Z,14.51
2022-11-27T02:40:51.889Z,14.29
2022-11-27T02:43:20.919Z,14.31
2022-11-27T02:45:48.918Z,14.36
2022-11-27T02:48:16.782Z,14.16
2022-11-27T02:50:44.742Z,14.18
2022-11-27T02:53:16.161Z,14.29
2022-11-27T02:55:43.270Z,13.85
2022-11-27T02:58:11.176Z,14.17
2022-11-27T03:00:38.605Z,14.16
2022-11-27T03:03:06.032Z,14.03
2022-11-27T03:05:34.076Z,14.24
2022-11-27T03:08:05.879Z,13.92
2022-11-27T03:10:34.530Z,14.06
2022-11-27T03:13:02.723Z,13.56
2022-11-27T03:15:31.362Z,13.73
2022-11-27T03:18:01.070Z,13.22
2022-11-27T03:20:32.289Z,13.13
2022-11-27T03:22:59.386Z,13.30
2022-11-27T03:25:26.490Z,13.90
2022-11-27T03:27:58.551Z,13.82
2022-11-27T03:30:25.673Z,13.85
2022-11-27T03:32:52.765Z,13.79
2022-11-27T03:35:21.334Z,13.73
2022-11-27T03:37:48.420Z,14.04
2022-11-27T03:40:15.590Z,14.20
2022-11-27T03:42:49.362Z,14.22
2022-11-27T03:45:33.871Z,13.97
2022-11-27T03:48:01.183Z,13.51
2022-11-27T03:50:54.796Z,13.61
2022-11-27T03:53:25.597Z,13.72
2022-11-27T03:55:55.680Z,13.76
2022-11-27T03:58:40.273Z,13.66
2022-11-27T04:01:09.052Z,13.44
2022-11-27T04:03:36.718Z,13.10
2022-11-27T04:06:03.943Z,13.06
2022-11-27T04:08:31.044Z,13.07
2022-11-27T04:10:58.431Z,13.27
2022-11-27T04:13:25.537Z,13.31
2022-11-27T04:15:52.732Z,13.71
2022-11-27T04:18:20.161Z,13.48
2022-11-27T04:20:47.275Z,13.70
2022-11-27T04:23:15.165Z,13.93
2022-11-27T04:25:42.521Z,13.74
2022-11-27T04:28:09.648Z,13.81
2022-11-27T04:30:36.762Z,13.86
2022-11-27T04:33:04.117Z,13.55
2022-11-27T04:35:31.234Z,13.44
2022-11-27T04:37:58.370Z,13.69
2022-11-27T04:40:25.760Z,13.52
2022-11-27T04:42:53.528Z,13.27
2022-11-27T04:45:20.648Z,13.44
2022-11-27T04:47:48.027Z,13.00
2022-11-27T04:50:15.156Z,13.32
2022-11-27T04:52:42.298Z,13.50
2022-11-27T04:55:10.935Z,13.44
2022-11-27T04:57:38.048Z,13.38
2022-11-27T05:00:05.801Z,13.14
2022-11-27T05:02:33.215Z,13.43
2022-11-27T05:05:00.330Z,13.13
2022-11-27T05:07:27.555Z,12.66
2022-11-27T05:09:54.974Z,12.61
2022-11-27T05:12:22.079Z,12.60
2022-11-27T05:14:49.190Z,12.61
2022-11-27T05:17:16.560Z,12.28
2022-11-27T05:19:43.777Z,12.09
2022-11-27T05:22:10.877Z,12.03
2022-11-27T05:24:38.488Z,12.19
2022-11-27T05:27:05.791Z,12.07
2022-11-27T05:29:32.962Z,12.14
2022-11-27T05:32:00.321Z,12.42
2022-11-27T05:34:27.413Z,11.83
2022-11-27T05:36:54.976Z,11.88
2022-11-27T05:39:22.341Z,12.42
2022-11-27T05:41:49.462Z,11.57
2022-11-27T05:44:16.590Z,11.95
2022-11-27T05:46:44.092Z,11.75
2022-11-27T05:49:12.677Z,11.89
2022-11-27T05:51:39.959Z,11.95
2022-11-27T05:54:07.442Z,11.76
2022-11-27T05:56:34.546Z,12.28
2022-11-27T05:59:02.030Z,11.39
2022-11-27T06:01:29.404Z,11.52
2022-11-27T06:03:56.788Z,11.64
2022-11-27T06:06:23.998Z,12.53
2022-11-27T06:08:51.106Z,12.32
2022-11-27T06:11:19.485Z,12.20
2022-11-27T06:13:46.797Z,12.45
2022-11-27T06:16:17.913Z,12.41
2022-11-27T06:18:45.377Z,12.40
2022-11-27T06:21:13.457Z,12.75
2022-11-27T06:23:41.227Z,12.89
2022-11-27T06:26:12.320Z,13.00
2022-11-27T06:28:39.755Z,13.30
2022-11-27T06:31:08.121Z,13.32
2022-11-27T06:33:37.425Z,13.49
2022-11-27T06:36:04.722Z,13.52
2022-11-27T06:38:32.677Z,13.59
2022-11-27T06:41:06.816Z,13.63
2022-11-27T06:43:34.282Z,13.65
2022-11-27T06:46:02.162Z,13.62
2022-11-27T06:48:29.674Z,13.72
2022-11-27T06:51:05.901Z,13.88
2022-11-27T06:53:33.981Z,14.00
2022-11-27T06:56:04.305Z,14.18
2022-11-27T06:58:31.620Z,14.20
2022-11-27T07:00:59.446Z,14.08
2022-11-27T07:03:26.791Z,13.99
2022-11-27T07:05:53.962Z,14.24
2022-11-27T07:08:22.280Z,13.90
2022-11-27T07:10:49.397Z,13.18
2022-11-27T07:13:16.476Z,13.89
2022-11-27T07:15:43.855Z,13.66
2022-11-27T07:18:11.268Z,13.71
2022-11-27T07:20:38.391Z,13.45
2022-11-27T07:23:05.805Z,13.67
2022-11-27T07:25:32.927Z,13.55
2022-11-27T07:28:00.103Z,12.85
2022-11-27T07:30:27.511Z,12.31
2022-11-27T07:32:54.648Z,12.30
2022-11-27T07:35:21.756Z,12.62
2022-11-27T07:37:49.112Z,12.83
2022-11-27T07:40:18.217Z,12.52
2022-11-27T07:42:45.412Z,12.10
2022-11-27T07:45:12.792Z,11.90
2022-11-27T07:47:39.893Z,12.71
2022-11-27T07:50:08.341Z,12.37
2022-11-27T07:52:41.080Z,11.49
2022-11-27T07:55:09.274Z,11.07
2022-11-27T07:57:36.644Z,11.56
2022-11-27T08:00:04.208Z,12.27
2022-11-27T08:02:31.499Z,11.92
2022-11-27T08:04:58.937Z,11.67
2022-11-27T08:07:29.406Z,12.25
2022-11-27T08:09:58.298Z,13.04
2022-11-27T08:12:25.802Z,12.56
2022-11-27T08:14:52.895Z,12.58
2022-11-27T08:17:20.569Z,12.46
2022-11-27T08:19:47.932Z,12.93
2022-11-27T08:22:15.545Z,12.70
2022-11-27T08:24:42.924Z,12.76
2022-11-27T08:27:10.584Z,12.81
2022-11-27T08:29:38.010Z,13.39
2022-11-27T08:32:05.331Z,13.73
2022-11-27T08:34:32.774Z,13.55
2022-11-27T08:36:59.881Z,13.51
2022-11-27T08:39:27.387Z,13.01
2022-11-27T08:41:54.750Z,12.49
2022-11-27T08:44:21.861Z,13.05
2022-11-27T08:46:49.014Z,13.05
2022-11-27T08:49:16.385Z,12.77
2022-11-27T08:51:43.496Z,13.06
2022-11-27T08:54:10.596Z,13.37
2022-11-27T08:56:37.981Z,13.00
2022-11-27T08:59:05.077Z,12.85
2022-11-27T09:01:32.445Z,13.36
2022-11-27T09:03:59.961Z,13.22
2022-11-27T09:06:28.383Z,13.67
2022-11-27T09:08:55.921Z,13.73
2022-11-27T09:11:23.345Z,13.48
2022-11-27T09:13:50.458Z,13.25
2022-11-27T09:16:18.224Z,13.30
2022-11-27T09:18:46.041Z,12.76
2022-11-27T09:21:13.372Z,12.91
2022-11-27T09:23:40.478Z,12.66
2022-11-27T09:26:09.239Z,13.13
2022-11-27T09:28:36.559Z,13.55
2022-11-27T09:31:04.301Z,14.04
2022-11-27T09:33:32.347Z,13.75
2022-11-27T09:36:03.097Z,13.84
2022-11-27T09:38:30.203Z,13.54
2022-11-27T09:41:02.982Z,13.25
2022-11-27T09:43:31.327Z,13.08
2022-11-27T09:46:01.187Z,13.05
2022-11-27T09:48:31.541Z,12.68
2022-11-27T09:50:59.655Z,12.90
2022-11-27T09:53:31.717Z,13.24
2022-11-27T09:55:59.097Z,13.68
2022-11-27T09:58:29.301Z,13.59
2022-11-27T10:00:56.643Z,12.67
2022-11-27T10:03:27.235Z,11.99
2022-11-27T10:06:01.235Z,12.60
2022-11-27T10:08:47.491Z,13.60
2022-11-27T10:11:23.579Z,13.23
2022-11-27T10:13:50.872Z,13.07
2022-11-27T10:16:23.714Z,13.30
2022-11-27T10:18:55.314Z,12.78
2022-11-27T10:21:26.113Z,13.15
2022-11-27T10:23:58.868Z,13.32
2022-11-27T10:26:34.336Z,13.97
2022-11-27T10:29:09.585Z,13.08
2022-11-27T10:31:49.663Z,13.47
2022-11-27T10:34:28.269Z,14.14
2022-11-27T10:36:55.385Z,13.93
2022-11-27T10:39:25.144Z,12.88
2022-11-27T10:41:53.926Z,13.36
2022-11-27T10:44:28.686Z,12.93
2022-11-27T10:46:57.936Z,13.04
2022-11-27T10:49:25.038Z,13.83
2022-11-27T10:51:52.172Z,13.34
2022-11-27T10:54:23.861Z,13.70
2022-11-27T10:57:09.924Z,13.32
2022-11-27T10:59:38.077Z,13.67
2022-11-27T11:02:07.507Z,13.19
2022-11-27T11:04:37.924Z,13.41
2022-11-27T11:07:19.165Z,13.85
2022-11-27T11:09:47.017Z,14.02
2022-11-27T11:12:20.395Z,13.97
2022-11-27T11:14:51.868Z,13.77
2022-11-27T11:17:22.987Z,13.37
2022-11-27T11:19:50.223Z,13.31
2022-11-27T11:22:17.347Z,13.65
2022-11-27T11:24:47.903Z,13.71
2022-11-27T11:27:18.053Z,14.25
2022-11-27T11:29:52.240Z,14.38
2022-11-27T11:32:22.316Z,14.24
2022-11-27T11:35:09.901Z,13.76
2022-11-27T11:37:40.324Z,13.56
2022-11-27T11:40:16.270Z,13.46
2022-11-27T11:42:58.833Z,13.51
2022-11-27T11:45:30.018Z,13.68
2022-11-27T11:48:17.875Z,14.17
2022-11-27T11:50:46.740Z,13.10
2022-11-27T11:53:32.669Z,13.60
2022-11-27T11:56:18.915Z,12.08
2022-11-27T11:58:50.117Z,12.05
2022-11-27T12:01:27.197Z,12.94
2022-11-27T12:04:13.901Z,12.05
2022-11-27T12:06:51.372Z,12.44
2022-11-27T12:09:27.845Z,12.37
2022-11-27T12:11:57.652Z,12.91
2022-11-27T12:14:45.314Z,13.25
2022-11-27T12:17:15.216Z,13.48
2022-11-27T12:20:08.855Z,13.48
2022-11-27T12:22:37.635Z,13.19
2022-11-27T12:25:06.526Z,13.59
2022-11-27T12:27:39.935Z,13.24
2022-11-27T12:30:07.402Z,13.19
2022-11-27T12:32:43.824Z,13.06
2022-11-27T12:35:17.474Z,13.53
2022-11-27T12:37:54.377Z,13.33
2022-11-27T12:40:40.563Z,13.82
2022-11-27T12:43:13.433Z,13.29
2022-11-27T12:45:40.789Z,13.89
2022-11-27T12:48:21.706Z,14.06
2022-11-27T12:50:51.058Z,14.32
2022-11-27T12:53:30.918Z,13.66
2022-11-27T12:56:03.801Z,13.79
2022-11-27T12:58:35.825Z,13.66
2022-11-27T13:01:18.799Z,13.96
2022-11-27T13:04:09.502Z,14.19
2022-11-27T13:06:40.702Z,13.96
2022-11-27T13:09:16.278Z,13.59
2022-11-27T13:11:43.937Z,14.18
2022-11-27T13:14:19.078Z,12.95
2022-11-27T13:16:47.696Z,13.86
2022-11-27T13:19:24.524Z,13.58
2022-11-27T13:21:54.442Z,13.54
2022-11-27T13:24:21.737Z,12.56
2022-11-27T13:27:09.641Z,13.55
2022-11-27T13:29:44.213Z,13.56
2022-11-27T13:32:18.165Z,13.13
2022-11-27T13:34:46.668Z,13.84
2022-11-27T13:37:29.625Z,12.96
2022-11-27T13:40:05.819Z,13.27
2022-11-27T13:42:36.842Z,14.05
2022-11-27T13:45:10.043Z,13.38
2022-11-27T13:47:41.050Z,12.97
2022-11-27T13:50:12.268Z,13.50
2022-11-27T13:52:50.561Z,13.55
2022-11-27T13:55:26.070Z,13.10
2022-11-27T13:57:54.731Z,13.77
2022-11-27T14:00:51.482Z,12.81
2022-11-27T14:03:27.312Z,12.74
2022-11-27T14:05:54.725Z,13.25
2022-11-27T14:08:29.939Z,13.56
2022-11-27T14:10:57.752Z,13.37
2022-11-27T14:13:42.176Z,12.00
2022-11-27T14:16:31.173Z,12.99
2022-11-27T14:18:59.705Z,11.96
2022-11-27T14:21:39.066Z,12.48
2022-11-27T14:24:26.010Z,12.20
2022-11-27T14:26:54.105Z,12.38
2022-11-27T14:29:21.939Z,11.96
2022-11-27T14:31:58.959Z,12.40
2022-11-27T14:34:31.071Z,11.65
2022-11-27T14:36:58.612Z,12.19
2022-11-27T14:39:35.073Z,12.17
2022-11-27T14:42:03.405Z,12.34
2022-11-27T14:44:30.786Z,12.63
2022-11-27T14:46:59.229Z,12.42
2022-11-27T14:49:27.637Z,12.41
2022-11-27T14:52:02.235Z,12.48
2022-11-27T14:54:31.747Z,11.23
2022-11-27T14:56:59.035Z,11.93
2022-11-27T14:59:26.323Z,12.54
2022-11-27T15:02:01.609Z,12.15
2022-11-27T15:04:35.990Z,12.86
2022-11-27T15:07:06.971Z,12.54
2022-11-27T15:09:34.362Z,12.01
2022-11-27T15:12:14.091Z,12.55
2022-11-27T15:14:44.896Z,12.81
2022-11-27T15:17:16.394Z,13.18
2022-11-27T15:19:43.999Z,12.70
2022-11-27T15:22:15.844Z,12.69
2022-11-27T15:24:43.121Z,13.08
2022-11-27T15:27:21.019Z,12.43
2022-11-27T15:29:51.232Z,12.61
2022-11-27T15:32:23.995Z,11.77
2022-11-27T15:34:55.560Z,11.53
2022-11-27T15:37:34.404Z,11.75
2022-11-27T15:40:02.754Z,12.82
2022-11-27T15:42:30.680Z,12.43
2022-11-27T15:44:58.016Z,12.50
2022-11-27T15:47:28.908Z,11.37
2022-11-27T15:49:56.325Z,11.35
2022-11-27T15:52:25.248Z,12.21
2022-11-27T15:54:52.745Z,12.62
2022-11-27T15:57:21.624Z,12.68
2022-11-27T15:59:48.918Z,13.29
2022-11-27T16:02:18.357Z,12.23
2022-11-27T16:04:46.716Z,12.72
2022-11-27T16:07:14.207Z,12.85
2022-11-27T16:09:47.204Z,12.72
2022-11-27T16:12:15.069Z,12.17
2022-11-27T16:14:43.018Z,11.93
2022-11-27T16:17:10.879Z,12.53
2022-11-27T16:19:38.504Z,12.97
2022-11-27T16:22:05.892Z,12.02
2022-11-27T16:24:33.368Z,12.39
2022-11-27T16:27:01.138Z,12.91
2022-11-27T16:29:28.671Z,13.00
2022-11-27T16:31:57.856Z,12.56
2022-11-27T16:34:27.759Z,12.29
2022-11-27T16:36:55.217Z,11.29
2022-11-27T16:39:22.550Z,11.10
2022-11-27T16:41:51.136Z,11.20
2022-11-27T16:44:18.871Z,11.76
2022-11-27T16:46:46.450Z,10.77
2022-11-27T16:49:14.019Z,10.58
2022-11-27T16:51:41.500Z,10.89
2022-11-27T16:54:13.219Z,11.36
2022-11-27T16:56:44.161Z,11.15
2022-11-27T16:59:12.455Z,11.29
2022-11-27T17:01:41.357Z,11.83
2022-11-27T17:04:11.319Z,11.00
2022-11-27T17:06:40.037Z,11.41
2022-11-27T17:09:07.703Z,11.87
2022-11-27T17:11:37.373Z,11.18
2022-11-27T17:14:07.435Z,11.80
2022-11-27T17:16:35.947Z,11.73
2022-11-27T17:19:04.130Z,11.58
2022-11-27T17:21:32.777Z,11.35
2022-11-27T17:24:02.301Z,12.05
2022-11-27T17:26:32.778Z,11.28
2022-11-27T17:29:02.177Z,11.99
2022-11-27T17:31:33.074Z,11.24
2022-11-27T17:34:01.617Z,11.14
2022-11-27T17:36:36.466Z,11.59
2022-11-27T17:39:05.212Z,11.93
2022-11-27T17:41:32.979Z,12.48
2022-11-27T17:44:00.720Z,11.13
2022-11-27T17:46:29.135Z,11.60
2022-11-27T17:48:59.099Z,11.42
2022-11-27T17:51:27.341Z,11.42
2022-11-27T17:53:55.707Z,11.37
2022-11-27T17:56:23.745Z,11.77
2022-11-27T17:58:51.749Z,11.54
2022-11-27T18:01:23.622Z,10.77
2022-11-27T18:03:52.052Z,10.67
2022-11-27T18:06:20.015Z,11.18
2022-11-27T18:08:47.971Z,10.79
2022-11-27T18:11:17.511Z,10.99
2022-11-27T18:13:46.998Z,10.74
2022-11-27T18:16:22.295Z,11.27
2022-11-27T18:18:50.588Z,11.25
2022-11-27T18:21:19.104Z,10.93
2022-11-27T18:24:21.822Z,11.37
2022-11-27T18:29:23.299Z,11.32
2022-11-27T18:31:52.325Z,11.99
2022-11-27T18:34:20.097Z,11.02
2022-11-27T18:36:47.458Z,11.59
2022-11-27T18:39:16.045Z,11.18
2022-11-27T18:41:43.853Z,11.22
2022-11-27T18:44:11.682Z,10.79
2022-11-27T18:46:39.883Z,12.03
2022-11-27T18:49:08.536Z,11.77
2022-11-27T18:51:36.992Z,12.18
2022-11-27T18:54:05.076Z,10.98
2022-11-27T18:56:32.947Z,12.45
2022-11-27T18:59:01.332Z,12.56
2022-11-27T19:01:30.032Z,12.32
2022-11-27T19:04:00.268Z,12.79
2022-11-27T19:06:30.244Z,12.71
2022-11-27T19:08:58.795Z,11.95
2022-11-27T19:11:29.012Z,12.65
2022-11-27T19:13:57.742Z,12.38
2022-11-27T19:16:26.959Z,12.90
2022-11-27T19:18:57.655Z,12.63
2022-11-27T19:21:26.056Z,12.82
2022-11-27T19:23:54.754Z,12.86
2022-11-27T19:26:24.902Z,12.07
2022-11-27T19:28:54.190Z,12.08
2022-11-27T19:31:24.209Z,13.25
2022-11-27T19:33:54.138Z,12.22
2022-11-27T19:36:23.954Z,13.11
2022-11-27T19:38:56.324Z,11.96
2022-11-27T19:41:24.613Z,12.38
2022-11-27T19:43:52.155Z,11.74
2022-11-27T19:46:22.419Z,12.29
2022-11-27T19:48:50.840Z,12.18
2022-11-27T19:51:24.846Z,12.11
2022-11-27T19:53:53.725Z,12.32
2022-11-27T19:56:21.989Z,12.24
2022-11-27T19:58:49.422Z,12.93
2022-11-27T20:01:18.654Z,12.24
2022-11-27T20:03:48.178Z,11.41
2022-11-27T20:06:16.947Z,11.81
2022-11-27T20:08:46.064Z,12.28
2022-11-27T20:11:14.937Z,12.03
2022-11-27T20:13:42.630Z,10.99
2022-11-27T20:16:15.991Z,10.70
2022-11-27T20:18:45.040Z,9.42
2022-11-27T20:21:14.904Z,10.08
2022-11-27T20:23:43.796Z,9.96
2022-11-27T20:26:16.478Z,11.08
2022-11-27T20:28:44.071Z,10.17
2022-11-27T20:31:16.053Z,10.17
2022-11-27T20:33:43.940Z,10.24
2022-11-27T20:36:12.599Z,10.62
2022-11-27T20:38:41.525Z,11.39
2022-11-27T20:41:13.135Z,11.54
2022-11-27T20:43:42.282Z,11.91
2022-11-27T20:46:12.645Z,11.67
2022-11-27T20:48:40.315Z,11.90
2022-11-27T20:51:09.530Z,12.05
2022-11-27T20:53:37.096Z,12.43
2022-11-27T20:56:05.602Z,11.60
2022-11-27T20:58:40.063Z,10.11
2022-11-27T21:01:15.701Z,11.17
2022-11-27T21:03:43.847Z,10.75
2022-11-27T21:06:15.099Z,12.14
2022-11-27T21:08:43.613Z,12.24
2022-11-27T21:11:12.086Z,12.10
2022-11-27T21:13:39.862Z,12.73
2022-11-27T21:16:09.650Z,12.55
2022-11-27T21:18:37.062Z,12.60
2022-11-27T21:21:08.685Z,12.55
2022-11-27T21:23:36.474Z,13.12
2022-11-27T21:26:04.098Z,12.52
2022-11-27T21:28:31.862Z,12.65
2022-11-27T21:31:06.373Z,12.87
2022-11-27T21:33:33.898Z,12.38
2022-11-27T21:36:01.403Z,12.06
2022-11-27T21:38:28.543Z,11.43
2022-11-27T21:40:56.211Z,11.64
2022-11-27T21:43:23.792Z,11.74
2022-11-27T21:45:51.125Z,10.93
2022-11-27T21:48:18.411Z,12.19
2022-11-27T21:50:45.792Z,12.42
2022-11-27T21:53:12.928Z,11.33
2022-11-27T21:55:40.884Z,11.25
2022-11-27T21:58:09.470Z,12.03
2022-11-27T22:00:36.817Z,12.03
2022-11-27T22:03:04.235Z,12.29
2022-11-27T22:05:31.367Z,12.50
2022-11-27T22:10:43.174Z,13.16
2022-11-27T22:13:10.968Z,11.06
2022-11-27T22:15:39.498Z,10.78
2022-11-27T22:18:06.938Z,10.46
2022-11-27T22:20:34.843Z,11.97
2022-11-27T22:23:02.283Z,12.79
2022-11-27T22:25:30.064Z,13.15
2022-11-27T22:27:57.380Z,13.28
2022-11-27T22:30:25.636Z,13.49
2022-11-27T22:32:53.488Z,13.68
2022-11-27T22:35:21.103Z,14.01
2022-11-27T22:37:48.299Z,13.90
2022-11-27T22:40:15.729Z,13.92
2022-11-27T22:42:42.869Z,13.89
2022-11-27T22:45:10.137Z,14.24
2022-11-27T22:47:37.518Z,14.08
2022-11-27T22:50:04.895Z,14.41
2022-11-27T22:52:32.091Z,14.40
2022-11-27T22:54:59.516Z,14.21
2022-11-27T22:57:26.642Z,14.05
2022-11-27T22:59:53.794Z,12.84
2022-11-27T23:02:21.228Z,13.47
2022-11-27T23:04:48.439Z,13.92
2022-11-27T23:07:17.022Z,13.48
2022-11-27T23:09:48.106Z,13.09
2022-11-27T23:12:15.213Z,12.74
2022-11-27T23:14:42.566Z,13.61
2022-11-27T23:17:10.124Z,12.89
2022-11-27T23:19:39.842Z,12.82
2022-11-27T23:22:06.954Z,12.08
2022-11-27T23:24:34.327Z,12.13
2022-11-27T23:27:01.463Z,10.54
2022-11-27T23:29:31.139Z,10.92
2022-11-27T23:31:58.708Z,10.96
2022-11-27T23:34:25.866Z,11.10
2022-11-27T23:36:52.978Z,11.95
2022-11-27T23:39:20.346Z,11.67
2022-11-27T23:41:49.541Z,11.68
2022-11-27T23:44:16.759Z,12.05
2022-11-27T23:46:44.116Z,12.37
2022-11-27T23:49:11.228Z,11.64
2022-11-27T23:51:38.359Z,11.12
2022-11-27T23:54:06.749Z,12.00
2022-11-27T23:56:33.970Z,11.92
2022-11-27T23:59:01.085Z,11.83
